createdAt,value
2017-11-15T00:01:23.657Z,44.60
2017-11-15T00:03:52.533Z,46.60
2017-11-15T00:06:20.622Z,55.63
2017-11-15T00:08:49.476Z,39.57
2017-11-15T00:11:17.589Z,44.87
2017-11-15T00:13:45.667Z,47.27
2017-11-15T00:16:14.097Z,41.30
2017-11-15T00:18:42.173Z,53.07
2017-11-15T00:21:10.266Z,42.80
2017-11-15T00:23:38.433Z,41.43
2017-11-15T00:26:06.726Z,40.03
2017-11-15T00:28:34.962Z,37.90
2017-11-15T00:31:03.034Z,45.40
2017-11-15T00:33:31.110Z,42.70
2017-11-15T00:35:59.234Z,38.27
2017-11-15T00:38:27.341Z,43.57
2017-11-15T00:40:55.460Z,43.23
2017-11-15T00:43:23.533Z,40.43
2017-11-15T00:45:52.403Z,34.33
2017-11-15T00:48:20.515Z,41.60
2017-11-15T00:50:48.672Z,42.00
2017-11-15T00:53:16.944Z,36.97
2017-11-15T00:55:45.062Z,42.67
2017-11-15T00:58:13.136Z,39.43
2017-11-15T01:00:41.369Z,36.07
2017-11-15T01:03:10.212Z,39.50
2017-11-15T01:05:38.294Z,38.60
2017-11-15T01:08:06.392Z,39.53
2017-11-15T01:10:34.480Z,38.17
2017-11-15T01:13:02.581Z,37.77
2017-11-15T01:15:30.661Z,41.80
2017-11-15T01:17:58.793Z,39.23
2017-11-15T01:20:26.881Z,33.83
2017-11-15T01:22:55.926Z,37.27
2017-11-15T01:25:24.050Z,38.73
2017-11-15T01:27:52.171Z,42.17
2017-11-15T01:30:20.272Z,39.73
2017-11-15T01:32:49.161Z,38.33
2017-11-15T01:35:17.401Z,38.90
2017-11-15T01:37:45.477Z,41.97
2017-11-15T01:40:13.746Z,44.00
2017-11-15T01:42:41.838Z,45.33
2017-11-15T01:45:10.583Z,49.70
2017-11-15T01:47:39.340Z,42.13
2017-11-15T01:50:08.181Z,40.97
2017-11-15T01:52:36.492Z,40.70
2017-11-15T01:55:04.616Z,43.47
2017-11-15T01:57:32.697Z,36.77
2017-11-15T02:00:00.850Z,40.43
2017-11-15T02:02:28.985Z,45.53
2017-11-15T02:04:57.164Z,46.37
2017-11-15T02:07:25.297Z,38.67
2017-11-15T02:09:53.381Z,40.10
2017-11-15T02:12:21.893Z,40.33
2017-11-15T02:14:51.849Z,41.50
2017-11-15T02:17:20.041Z,44.23
2017-11-15T02:19:48.137Z,43.80
2017-11-15T02:22:16.240Z,43.37
2017-11-15T02:24:45.131Z,54.87
2017-11-15T02:27:14.332Z,41.30
2017-11-15T02:29:42.445Z,39.60
2017-11-15T02:32:10.540Z,41.50
2017-11-15T02:34:38.651Z,45.33
2017-11-15T02:37:07.477Z,41.00
2017-11-15T02:39:36.709Z,47.47
2017-11-15T02:42:04.897Z,41.93
2017-11-15T02:44:33.785Z,41.23
2017-11-15T02:47:02.635Z,42.60
2017-11-15T02:49:30.796Z,43.70
2017-11-15T02:51:59.453Z,45.27
2017-11-15T02:54:28.341Z,45.37
2017-11-15T02:56:56.446Z,56.27
2017-11-15T02:59:25.649Z,50.57
2017-11-15T03:01:53.753Z,49.17
2017-11-15T03:04:21.838Z,48.47
2017-11-15T03:06:50.844Z,46.87
2017-11-15T03:09:19.754Z,53.83
2017-11-15T03:11:47.851Z,52.83
2017-11-15T03:14:15.960Z,52.57
2017-11-15T03:16:44.040Z,56.37
2017-11-15T03:19:12.289Z,58.23
2017-11-15T03:21:40.453Z,53.53
2017-11-15T03:24:08.545Z,56.67
2017-11-15T03:26:36.648Z,54.63
2017-11-15T03:29:05.549Z,67.47
2017-11-15T03:31:34.421Z,68.27
2017-11-15T03:34:02.501Z,55.07
2017-11-15T03:36:31.877Z,59.53
2017-11-15T03:38:59.956Z,53.80
2017-11-15T03:41:29.193Z,61.43
2017-11-15T03:43:57.506Z,53.73
2017-11-15T03:46:25.609Z,66.77
2017-11-15T03:48:53.699Z,57.17
2017-11-15T03:51:21.789Z,60.03
2017-11-15T03:53:49.899Z,64.87
2017-11-15T03:56:17.992Z,64.80
2017-11-15T03:58:46.106Z,64.20
2017-11-15T04:01:14.253Z,66.33
2017-11-15T04:03:43.098Z,62.83
2017-11-15T04:06:12.188Z,57.53
2017-11-15T04:08:41.069Z,64.03
2017-11-15T04:11:09.300Z,68.33
2017-11-15T04:13:37.374Z,59.67
2017-11-15T04:16:05.485Z,61.83
2017-11-15T04:18:33.585Z,63.83
2017-11-15T04:21:01.661Z,61.30
2017-11-15T04:23:29.768Z,64.60
2017-11-15T04:25:57.854Z,64.87
2017-11-15T04:28:26.696Z,62.67
2017-11-15T04:30:55.594Z,61.00
2017-11-15T04:33:23.682Z,57.67
2017-11-15T04:35:52.155Z,64.97
2017-11-15T04:38:20.261Z,55.80
2017-11-15T04:40:48.357Z,58.63
2017-11-15T04:43:16.466Z,51.53
2017-11-15T04:45:44.581Z,61.43
2017-11-15T04:48:13.425Z,47.07
2017-11-15T04:50:42.163Z,53.73
2017-11-15T04:53:10.520Z,54.47
2017-11-15T04:55:38.616Z,51.43
2017-11-15T04:58:07.069Z,54.83
2017-11-15T05:00:35.924Z,58.77
2017-11-15T05:03:04.156Z,58.53
2017-11-15T05:05:32.284Z,63.13
2017-11-15T05:08:00.361Z,65.60
2017-11-15T05:10:28.468Z,60.33
2017-11-15T05:12:57.320Z,62.20
2017-11-15T05:15:25.424Z,59.67
2017-11-15T05:17:54.273Z,52.83
2017-11-15T05:20:22.373Z,52.40
2017-11-15T05:22:50.504Z,55.87
2017-11-15T05:25:18.593Z,60.83
2017-11-15T05:27:46.692Z,58.40
2017-11-15T05:30:14.765Z,60.93
2017-11-15T05:32:43.641Z,57.03
2017-11-15T05:35:12.429Z,62.27
2017-11-15T05:37:40.521Z,57.37
2017-11-15T05:40:09.756Z,60.50
2017-11-15T05:42:38.730Z,64.70
2017-11-15T05:45:07.584Z,60.93
2017-11-15T05:47:35.662Z,66.73
2017-11-15T05:50:04.925Z,62.87
2017-11-15T05:52:33.596Z,56.00
2017-11-15T05:55:02.364Z,59.40
2017-11-15T05:57:31.257Z,62.80
2017-11-15T05:59:59.901Z,61.03
2017-11-15T06:02:28.045Z,61.80
2017-11-15T06:04:56.118Z,60.00
2017-11-15T06:07:24.220Z,66.00
2017-11-15T06:09:52.354Z,63.20
2017-11-15T06:12:21.057Z,55.70
2017-11-15T06:14:49.145Z,66.00
2017-11-15T06:17:17.836Z,61.57
2017-11-15T06:19:45.901Z,59.57
2017-11-15T06:22:14.054Z,68.60
2017-11-15T06:24:42.184Z,62.10
2017-11-15T06:27:10.294Z,61.27
2017-11-15T06:29:38.479Z,60.67
2017-11-15T06:32:06.706Z,64.60
2017-11-15T06:34:34.700Z,61.27
2017-11-15T06:37:02.911Z,65.00
2017-11-15T06:39:31.287Z,66.07
2017-11-15T06:41:59.481Z,61.10
2017-11-15T06:44:27.565Z,58.23
2017-11-15T06:46:55.677Z,63.30
2017-11-15T06:49:23.985Z,59.37
2017-11-15T06:51:52.269Z,61.73
2017-11-15T06:54:20.357Z,61.93
2017-11-15T06:56:48.528Z,63.73
2017-11-15T06:59:17.704Z,65.20
2017-11-15T07:01:45.817Z,60.10
2017-11-15T07:04:15.677Z,67.93
2017-11-15T07:06:43.797Z,66.77
2017-11-15T07:09:11.881Z,64.80
2017-11-15T07:11:40.696Z,58.63
2017-11-15T07:14:08.781Z,62.37
2017-11-15T07:16:36.881Z,65.13
2017-11-15T07:19:04.960Z,59.83
2017-11-15T07:21:33.039Z,65.03
2017-11-15T07:24:01.167Z,67.43
2017-11-15T07:26:29.293Z,68.63
2017-11-15T07:28:58.198Z,65.60
2017-11-15T07:31:27.232Z,72.57
2017-11-15T07:33:55.333Z,59.60
2017-11-15T07:36:23.449Z,61.50
2017-11-15T07:38:51.562Z,75.30
2017-11-15T07:41:19.642Z,63.83
2017-11-15T07:43:47.785Z,69.30
2017-11-15T07:46:15.993Z,60.50
2017-11-15T07:48:44.069Z,61.63
2017-11-15T07:51:12.165Z,66.60
2017-11-15T07:53:41.009Z,70.07
2017-11-15T07:56:10.406Z,71.07
2017-11-15T07:58:39.432Z,67.07
2017-11-15T08:01:07.513Z,70.33
2017-11-15T08:03:35.845Z,75.70
2017-11-15T08:06:05.037Z,71.10
2017-11-15T08:08:34.028Z,78.40
2017-11-15T08:11:02.121Z,75.87
2017-11-15T08:13:30.712Z,65.80
2017-11-15T08:15:58.813Z,72.87
2017-11-15T08:18:26.893Z,67.43
2017-11-15T08:20:55.766Z,74.70
2017-11-15T08:23:23.846Z,68.73
2017-11-15T08:25:52.710Z,73.80
2017-11-15T08:28:20.792Z,67.53
2017-11-15T08:30:49.186Z,68.30
2017-11-15T08:33:18.066Z,63.43
2017-11-15T08:35:46.158Z,65.07
2017-11-15T08:38:15.025Z,74.10
2017-11-15T08:40:43.361Z,72.80
2017-11-15T08:43:11.474Z,70.87
2017-11-15T08:45:39.732Z,67.83
2017-11-15T08:48:07.989Z,58.13
2017-11-15T08:50:36.504Z,61.93
2017-11-15T08:53:04.885Z,67.33
2017-11-15T08:55:32.985Z,69.03
2017-11-15T08:58:01.862Z,60.53
2017-11-15T09:00:30.171Z,62.77
2017-11-15T09:02:58.816Z,65.97
2017-11-15T09:05:26.950Z,69.00
2017-11-15T09:07:55.026Z,65.83
2017-11-15T09:10:23.148Z,66.90
2017-11-15T09:12:51.249Z,67.10
2017-11-15T09:15:19.426Z,75.27
2017-11-15T09:17:48.457Z,66.57
2017-11-15T09:20:16.654Z,62.90
2017-11-15T09:22:45.072Z,64.20
2017-11-15T09:25:13.185Z,60.87
2017-11-15T09:27:41.263Z,62.97
2017-11-15T09:30:10.160Z,58.37
2017-11-15T09:32:38.245Z,65.43
2017-11-15T09:35:06.535Z,63.27
2017-11-15T09:37:34.617Z,66.60
2017-11-15T09:40:03.490Z,69.30
2017-11-15T09:42:33.447Z,74.53
2017-11-15T09:45:01.569Z,61.30
2017-11-15T09:47:30.114Z,71.60
2017-11-15T09:49:58.199Z,74.60
2017-11-15T09:52:26.298Z,66.37
2017-11-15T09:54:55.048Z,60.60
2017-11-15T09:57:23.138Z,68.17
2017-11-15T09:59:51.235Z,67.00
2017-11-15T10:02:19.340Z,58.50
2017-11-15T10:04:47.440Z,68.90
2017-11-15T10:07:17.210Z,58.23
2017-11-15T10:09:46.173Z,59.47
2017-11-15T10:12:14.568Z,59.20
2017-11-15T10:14:42.650Z,60.13
2017-11-15T10:17:12.147Z,56.77
2017-11-15T10:19:40.444Z,63.30
2017-11-15T10:22:09.281Z,56.10
2017-11-15T10:24:37.400Z,60.27
2017-11-15T10:27:06.244Z,61.47
2017-11-15T10:29:34.380Z,59.27
2017-11-15T10:32:02.474Z,57.87
2017-11-15T10:34:30.606Z,54.67
2017-11-15T10:36:59.965Z,60.33
2017-11-15T10:39:28.077Z,54.43
2017-11-15T10:41:57.766Z,52.20
2017-11-15T10:44:25.841Z,55.27
2017-11-15T10:46:53.979Z,49.47
2017-11-15T10:49:22.295Z,59.93
2017-11-15T10:51:50.369Z,58.40
2017-11-15T10:54:18.458Z,55.90
2017-11-15T10:56:46.555Z,49.60
2017-11-15T10:59:14.901Z,48.90
2017-11-15T11:01:43.014Z,48.73
2017-11-15T11:04:11.620Z,51.00
2017-11-15T11:06:39.859Z,48.53
2017-11-15T11:09:08.025Z,59.50
2017-11-15T11:11:36.120Z,48.03
2017-11-15T11:14:05.721Z,49.57
2017-11-15T11:16:34.751Z,47.80
2017-11-15T11:19:02.841Z,44.80
2017-11-15T11:21:31.413Z,44.53
2017-11-15T11:23:59.532Z,51.43
2017-11-15T11:26:27.619Z,48.70
2017-11-15T11:28:55.719Z,53.63
2017-11-15T11:31:23.877Z,49.70
2017-11-15T11:33:51.985Z,53.30
2017-11-15T11:36:20.098Z,48.83
2017-11-15T11:38:48.185Z,43.33
2017-11-15T11:41:16.711Z,52.40
2017-11-15T11:43:44.809Z,49.33
2017-11-15T11:46:13.665Z,52.00
2017-11-15T11:48:41.742Z,61.07
2017-11-15T11:51:10.549Z,47.83
2017-11-15T11:53:38.665Z,41.97
2017-11-15T11:56:06.745Z,52.57
2017-11-15T11:58:34.853Z,42.60
2017-11-15T12:01:02.924Z,52.40
2017-11-15T12:03:31.009Z,49.47
2017-11-15T12:05:59.109Z,46.90
2017-11-15T12:08:27.224Z,51.20
2017-11-15T12:10:55.310Z,48.47
2017-11-15T12:13:24.685Z,54.10
2017-11-15T12:15:52.784Z,52.17
2017-11-15T12:18:20.887Z,37.87
2017-11-15T12:20:49.729Z,45.83
2017-11-15T12:23:17.830Z,51.20
2017-11-15T12:25:45.906Z,42.40
2017-11-15T12:28:14.774Z,41.87
2017-11-15T12:30:42.860Z,46.93
2017-11-15T12:33:10.950Z,43.83
2017-11-15T12:35:39.806Z,50.10
2017-11-15T12:38:07.889Z,45.17
2017-11-15T12:40:35.985Z,45.13
2017-11-15T12:43:04.853Z,50.33
2017-11-15T12:45:32.993Z,53.20
2017-11-15T12:48:01.314Z,45.97
2017-11-15T12:50:29.410Z,45.37
2017-11-15T12:52:57.510Z,46.17
2017-11-15T12:55:25.661Z,55.30
2017-11-15T12:57:53.795Z,46.83
2017-11-15T13:00:22.041Z,43.70
2017-11-15T13:02:50.125Z,52.03
2017-11-15T13:05:19.397Z,43.87
2017-11-15T13:07:47.531Z,43.63
2017-11-15T13:10:15.629Z,44.50
2017-11-15T13:12:43.720Z,40.30
2017-11-15T13:15:13.030Z,37.13
2017-11-15T13:17:41.839Z,44.63
2017-11-15T13:20:09.938Z,38.17
2017-11-15T13:22:38.840Z,40.70
2017-11-15T13:25:07.686Z,40.47
2017-11-15T13:27:35.796Z,44.67
2017-11-15T13:30:04.641Z,40.37
2017-11-15T13:32:32.858Z,44.70
2017-11-15T13:35:01.707Z,38.37
2017-11-15T13:37:29.810Z,44.13
2017-11-15T13:39:58.602Z,45.20
2017-11-15T13:42:26.684Z,44.27
2017-11-15T13:44:55.541Z,53.80
2017-11-15T13:47:23.661Z,43.10
2017-11-15T13:49:51.769Z,47.53
2017-11-15T13:52:20.679Z,43.43
2017-11-15T13:54:49.226Z,42.53
2017-11-15T13:57:18.336Z,45.93
2017-11-15T13:59:47.625Z,45.40
2017-11-15T14:02:16.489Z,43.77
2017-11-15T14:04:44.738Z,43.77
2017-11-15T14:07:12.863Z,41.20
2017-11-15T14:09:41.483Z,41.63
2017-11-15T14:12:09.561Z,40.37
2017-11-15T14:14:37.656Z,44.53
2017-11-15T14:17:06.420Z,44.80
2017-11-15T14:19:34.673Z,43.50
2017-11-15T14:22:03.688Z,46.37
2017-11-15T14:24:31.797Z,41.10
2017-11-15T14:27:00.645Z,35.00
2017-11-15T14:29:28.777Z,44.97
2017-11-15T14:31:56.876Z,43.77
2017-11-15T14:34:26.168Z,45.30
2017-11-15T14:36:55.073Z,42.47
2017-11-15T14:39:23.162Z,48.43
2017-11-15T14:41:51.260Z,41.27
2017-11-15T14:44:20.097Z,39.57
2017-11-15T14:46:48.179Z,41.37
2017-11-15T14:49:16.285Z,44.47
2017-11-15T14:51:44.362Z,37.90
2017-11-15T14:54:13.252Z,40.13
2017-11-15T14:56:42.093Z,36.37
2017-11-15T14:59:10.217Z,39.87
2017-11-15T15:01:39.083Z,43.90
2017-11-15T15:04:07.182Z,37.17
2017-11-15T15:06:36.059Z,38.27
2017-11-15T15:09:04.861Z,38.13
2017-11-15T15:11:33.161Z,44.17
2017-11-15T15:14:01.705Z,41.80
2017-11-15T15:16:29.805Z,50.23
2017-11-15T15:18:57.917Z,46.67
2017-11-15T15:21:26.931Z,37.03
2017-11-15T15:23:55.565Z,42.00
2017-11-15T15:26:24.671Z,41.27
2017-11-15T15:28:52.753Z,38.43
2017-11-15T15:31:20.876Z,40.97
2017-11-15T15:33:49.716Z,39.60
2017-11-15T15:36:17.803Z,46.87
2017-11-15T15:38:45.890Z,38.90
2017-11-15T15:41:14.058Z,44.03
2017-11-15T15:43:42.173Z,38.23
2017-11-15T15:46:11.120Z,36.63
2017-11-15T15:48:39.240Z,37.07
2017-11-15T15:51:07.338Z,35.23
2017-11-15T15:53:35.508Z,38.57
2017-11-15T15:56:03.778Z,38.80
2017-11-15T15:58:31.860Z,35.97
2017-11-15T16:01:00.748Z,37.90
2017-11-15T16:03:28.827Z,35.20
2017-11-15T16:05:57.027Z,34.13
2017-11-15T16:08:25.110Z,37.07
2017-11-15T16:10:53.248Z,34.53
2017-11-15T16:13:21.358Z,36.83
2017-11-15T16:15:49.471Z,37.40
2017-11-15T16:18:17.551Z,30.90
2017-11-15T16:20:45.646Z,40.07
2017-11-15T16:23:13.745Z,40.40
2017-11-15T16:25:41.842Z,44.87
2017-11-15T16:28:10.713Z,31.67
2017-11-15T16:30:40.546Z,33.97
2017-11-15T16:33:09.398Z,37.27
2017-11-15T16:35:37.501Z,33.33
2017-11-15T16:38:06.383Z,33.63
2017-11-15T16:40:34.473Z,36.93
2017-11-15T16:43:02.598Z,41.03
2017-11-15T16:45:30.722Z,29.50
2017-11-15T16:47:59.689Z,35.53
2017-11-15T16:50:27.789Z,57.63
2017-11-15T16:52:56.633Z,39.53
2017-11-15T16:55:24.746Z,39.47
2017-11-15T16:57:52.877Z,38.27
2017-11-15T17:00:20.990Z,38.03
2017-11-15T17:02:49.855Z,38.90
2017-11-15T17:05:17.947Z,37.73
2017-11-15T17:07:47.285Z,38.30
2017-11-15T17:10:15.390Z,37.20
2017-11-15T17:12:43.497Z,37.57
2017-11-15T17:15:11.580Z,34.70
2017-11-15T17:17:40.430Z,32.93
2017-11-15T17:20:08.523Z,41.27
2017-11-15T17:22:38.231Z,47.20
2017-11-15T17:25:07.218Z,44.97
2017-11-15T17:27:36.038Z,44.67
2017-11-15T17:30:05.351Z,42.60
2017-11-15T17:32:33.941Z,38.97
2017-11-15T17:35:02.544Z,37.97
2017-11-15T17:37:30.641Z,39.60
2017-11-15T17:39:58.729Z,32.20
2017-11-15T17:42:26.862Z,86.23
2017-11-15T17:44:54.951Z,37.50
2017-11-15T17:47:23.074Z,38.03
2017-11-15T17:49:51.204Z,33.03
2017-11-15T17:52:19.328Z,33.47
2017-11-15T17:54:47.420Z,30.70
2017-11-15T17:57:15.491Z,40.17
2017-11-15T17:59:43.580Z,31.90
2017-11-15T18:02:11.717Z,38.67
2017-11-15T18:04:39.820Z,38.60
2017-11-15T18:07:07.921Z,31.20
2017-11-15T18:09:36.011Z,45.20
2017-11-15T18:12:04.731Z,39.53
2017-11-15T18:14:32.917Z,33.87
2017-11-15T18:17:01.015Z,39.60
2017-11-15T18:19:29.106Z,63.83
2017-11-15T18:21:57.188Z,40.73
2017-11-15T18:24:27.021Z,43.00
2017-11-15T18:26:55.133Z,36.70
2017-11-15T18:29:23.220Z,49.13
2017-11-15T18:31:51.462Z,44.33
2017-11-15T18:34:19.572Z,31.77
2017-11-15T18:36:47.672Z,35.87
2017-11-15T18:39:15.784Z,36.07
2017-11-15T18:41:44.661Z,43.60
2017-11-15T18:44:12.761Z,36.10
2017-11-15T18:46:40.873Z,37.07
2017-11-15T18:49:09.725Z,37.37
2017-11-15T18:51:37.845Z,34.87
2017-11-15T18:54:06.695Z,43.43
2017-11-15T18:56:34.845Z,39.00
2017-11-15T18:59:02.996Z,38.67
2017-11-15T19:01:31.102Z,50.10
2017-11-15T19:03:59.223Z,43.37
2017-11-15T19:06:28.129Z,45.27
2017-11-15T19:08:56.255Z,38.83
2017-11-15T19:11:24.992Z,47.63
2017-11-15T19:13:53.895Z,46.23
2017-11-15T19:16:21.992Z,40.13
2017-11-15T19:18:50.103Z,37.40
2017-11-15T19:21:18.192Z,43.20
2017-11-15T19:23:46.746Z,40.03
2017-11-15T19:26:14.835Z,37.33
2017-11-15T19:28:42.930Z,34.80
2017-11-15T19:31:11.049Z,39.70
2017-11-15T19:33:39.847Z,60.90
2017-11-15T19:36:08.011Z,53.40
2017-11-15T19:38:36.111Z,35.57
2017-11-15T19:41:05.091Z,42.07
2017-11-15T19:43:33.858Z,43.00
2017-11-15T19:46:02.006Z,35.83
2017-11-15T19:48:31.152Z,37.50
2017-11-15T19:51:00.006Z,37.23
2017-11-15T19:53:28.992Z,40.50
2017-11-15T19:55:57.087Z,34.73
2017-11-15T19:58:25.195Z,39.60
2017-11-15T20:00:53.280Z,41.77
2017-11-15T20:03:21.444Z,37.60
2017-11-15T20:05:50.358Z,39.83
2017-11-15T20:08:18.446Z,35.07
2017-11-15T20:10:46.604Z,34.87
2017-11-15T20:13:14.699Z,37.30
2017-11-15T20:15:43.062Z,34.43
2017-11-15T20:18:11.151Z,37.63
2017-11-15T20:20:39.280Z,38.03
2017-11-15T20:23:07.366Z,43.00
2017-11-15T20:25:35.464Z,37.67
2017-11-15T20:28:03.578Z,32.90
2017-11-15T20:30:31.656Z,40.83
2017-11-15T20:32:59.753Z,31.10
2017-11-15T20:35:27.904Z,34.87
2017-11-15T20:37:56.797Z,34.40
2017-11-15T20:40:25.677Z,33.70
2017-11-15T20:42:53.759Z,31.77
2017-11-15T20:45:22.225Z,34.17
2017-11-15T20:47:50.362Z,33.50
2017-11-15T20:50:18.453Z,29.67
2017-11-15T20:52:46.561Z,32.80
2017-11-15T20:55:15.421Z,36.13
2017-11-15T20:57:43.544Z,30.53
2017-11-15T21:00:11.632Z,32.10
2017-11-15T21:02:39.730Z,30.40
2017-11-15T21:05:07.883Z,36.20
2017-11-15T21:07:36.052Z,28.97
2017-11-15T21:10:04.129Z,32.43
2017-11-15T21:12:32.226Z,30.90
2017-11-15T21:15:00.529Z,27.47
2017-11-15T21:17:29.385Z,31.87
2017-11-15T21:19:57.462Z,30.00
2017-11-15T21:22:25.584Z,26.20
2017-11-15T21:24:53.689Z,28.73
2017-11-15T21:27:22.119Z,40.43
2017-11-15T21:29:50.986Z,32.23
2017-11-15T21:32:19.945Z,31.87
2017-11-15T21:34:48.132Z,30.37
2017-11-15T21:37:16.236Z,31.47
2017-11-15T21:39:44.336Z,28.57
2017-11-15T21:42:12.519Z,27.90
2017-11-15T21:44:41.937Z,31.17
2017-11-15T21:47:10.237Z,27.97
2017-11-15T21:49:38.336Z,32.40
2017-11-15T21:52:06.432Z,28.40
2017-11-15T21:54:34.503Z,30.10
2017-11-15T21:57:02.604Z,22.43
2017-11-15T21:59:30.996Z,27.40
2017-11-15T22:01:59.069Z,25.80
2017-11-15T22:04:27.181Z,28.83
2017-11-15T22:06:55.275Z,26.80
2017-11-15T22:09:24.120Z,31.97
2017-11-15T22:11:52.244Z,28.47
2017-11-15T22:14:20.343Z,25.27
2017-11-15T22:16:48.429Z,26.63
2017-11-15T22:19:16.618Z,25.60
2017-11-15T22:21:44.697Z,35.33
2017-11-15T22:24:13.970Z,24.37
2017-11-15T22:26:42.119Z,29.90
2017-11-15T22:29:10.428Z,30.73
2017-11-15T22:31:38.526Z,27.33
2017-11-15T22:34:06.615Z,28.77
2017-11-15T22:36:35.525Z,24.93
2017-11-15T22:39:04.650Z,31.17
2017-11-15T22:41:32.777Z,34.53
2017-11-15T22:44:00.937Z,37.00
2017-11-15T22:46:29.076Z,33.07
2017-11-15T22:48:57.296Z,33.00
2017-11-15T22:51:26.158Z,25.77
2017-11-15T22:53:54.276Z,26.10
2017-11-15T22:56:22.354Z,27.80
2017-11-15T22:58:50.472Z,25.50
2017-11-15T23:01:18.591Z,18.80
2017-11-15T23:03:47.494Z,25.87
2017-11-15T23:06:15.659Z,28.20
2017-11-15T23:08:44.069Z,25.53
2017-11-15T23:11:12.369Z,43.43
2017-11-15T23:13:40.468Z,25.90
2017-11-15T23:16:08.581Z,32.40
2017-11-15T23:18:36.690Z,21.00
2017-11-15T23:21:04.956Z,24.43
2017-11-15T23:23:33.042Z,22.13
2017-11-15T23:26:01.320Z,22.00
2017-11-15T23:28:29.408Z,22.60
2017-11-15T23:30:58.892Z,19.53
2017-11-15T23:33:27.128Z,19.40
2017-11-15T23:35:55.438Z,19.10
2017-11-15T23:38:23.957Z,19.20
2017-11-15T23:40:52.177Z,18.10
2017-11-15T23:43:20.249Z,21.33
2017-11-15T23:45:49.552Z,17.83
2017-11-15T23:48:17.808Z,20.60
2017-11-15T23:50:45.910Z,25.40
2017-11-15T23:53:14.365Z,17.83
2017-11-15T23:55:42.498Z,17.53
2017-11-15T23:58:11.475Z,16.70
